Wetterdaten: Woche 02.11.09 - 08.11.09 (KW45)
Datum Zeit Temp. A. Feuchte A. Luftdruck Regen Wind Richtung Taupunkt Windchill Windben
02.11.2009 00:00 3,0 C 88 % 1016,6 hPa 0,0 l/m 0,2 km/h N 1,2 C 3,0 C 2,9 km/h
02.11.2009 01:00 2,8 C 89 % 1015,9 hPa 0,0 l/m 0,2 km/h N 1,1 C 2,8 C 3,2 km/h
02.11.2009 02:00 2,7 C 89 % 1014,9 hPa 0,0 l/m 0,5 km/h N 1,1 C 2,7 C 5,2 km/h
02.11.2009 03:00 2,5 C 89 % 1014,2 hPa 0,0 l/m 0,5 km/h N 0,9 C 2,5 C 6,8 km/h
02.11.2009 04:00 2,2 C 89 % 1013,3 hPa 0,0 l/m 0,4 km/h N 0,5 C 2,2 C 4,8 km/h
02.11.2009 05:00 1,8 C 88 % 1012,9 hPa 0,0 l/m 0,5 km/h N 0,1 C 1,8 C 5,2 km/h
02.11.2009 06:00 1,4 C 89 % 1012,1 hPa 0,0 l/m 0,6 km/h N -0,2 C 1,4 C 6,4 km/h
02.11.2009 07:00 1,4 C 89 % 1012,0 hPa 0,0 l/m 1,3 km/h NO -0,3 C 1,4 C 8,0 km/h
02.11.2009 08:00 1,7 C 89 % 1011,8 hPa 0,0 l/m 1,7 km/h N-NO 0,0 C 1,7 C 13,3 km/h
02.11.2009 09:00 2,6 C 86 % 1011,2 hPa 0,0 l/m 2,3 km/h O-SO 0,4 C 2,6 C 10,9 km/h
02.11.2009 10:00 3,8 C 81 % 1010,8 hPa 0,0 l/m 1,9 km/h S 0,8 C 3,8 C 11,6 km/h
02.11.2009 11:00 4,9 C 78 % 1010,4 hPa 0,0 l/m 2,6 km/h O 1,3 C 4,9 C 8,5 km/h
02.11.2009 12:00 5,2 C 76 % 1009,3 hPa 0,0 l/m 3,9 km/h O 1,3 C 5,2 C 10,9 km/h
02.11.2009 13:00 6,1 C 72 % 1008,4 hPa 0,0 l/m 2,5 km/h W-SW 1,5 C 6,1 C 11,3 km/h
02.11.2009 14:00 6,2 C 71 % 1007,7 hPa 0,0 l/m 2,3 km/h SO 1,3 C 6,2 C 11,3 km/h
02.11.2009 15:00 5,9 C 72 % 1007,2 hPa 0,0 l/m 1,2 km/h SW 1,2 C 5,9 C 7,6 km/h
02.11.2009 16:00 5,7 C 73 % 1006,4 hPa 0,0 l/m 1,1 km/h O-SO 1,2 C 5,7 C 9,2 km/h
02.11.2009 17:00 5,4 C 74 % 1006,0 hPa 0,0 l/m 1,4 km/h O 1,2 C 5,4 C 8,9 km/h
02.11.2009 18:00 5,2 C 76 % 1005,6 hPa 0,0 l/m 1,4 km/h O-NO 1,2 C 5,2 C 8,9 km/h
02.11.2009 19:00 4,9 C 77 % 1005,1 hPa 0,0 l/m 1,3 km/h O-SO 1,2 C 4,9 C 8,4 km/h
02.11.2009 20:00 4,6 C 82 % 1004,7 hPa 0,9 l/m 1,0 km/h SO 1,8 C 4,6 C 6,0 km/h
02.11.2009 21:00 3,9 C 87 % 1004,3 hPa 0,3 l/m 1,0 km/h N 1,9 C 3,9 C 6,4 km/h
02.11.2009 22:00 3,7 C 89 % 1004,2 hPa 0,3 l/m 0,6 km/h N 2,1 C 3,7 C 6,0 km/h
02.11.2009 23:00 3,8 C 90 % 1004,0 hPa 0,3 l/m 0,3 km/h N 2,3 C 3,8 C 3,6 km/h
03.11.2009 00:00 3,9 C 90 % 1003,6 hPa 0,3 l/m 0,6 km/h N 2,4 C 3,9 C 6,0 km/h
03.11.2009 01:00 3,9 C 91 % 1003,4 hPa 0,0 l/m 0,7 km/h S 2,6 C 3,9 C 6,8 km/h
03.11.2009 02:00 3,9 C 91 % 1003,0 hPa 0,0 l/m 0,6 km/h N 2,5 C 3,9 C 5,6 km/h
03.11.2009 03:00 3,7 C 91 % 1002,9 hPa 0,0 l/m 1,2 km/h S 2,4 C 3,7 C 7,2 km/h
03.11.2009 04:00 3,6 C 91 % 1002,8 hPa 0,0 l/m 0,9 km/h N 2,3 C 3,6 C 7,6 km/h
03.11.2009 05:00 3,5 C 91 % 1002,4 hPa 0,0 l/m 0,2 km/h N 2,2 C 3,5 C 3,2 km/h
03.11.2009 06:00 2,8 C 91 % 1002,5 hPa 0,0 l/m 0,2 km/h N 1,5 C 2,8 C 3,6 km/h
03.11.2009 07:00 1,7 C 91 % 1002,9 hPa 0,0 l/m 0,1 km/h N 0,3 C 1,7 C 2,4 km/h
03.11.2009 08:00 1,0 C 91 % 1003,3 hPa 0,0 l/m 0,1 km/h N -0,3 C 1,0 C 1,2 km/h
03.11.2009 09:00 0,5 C 92 % 1003,5 hPa 0,0 l/m 0,0 km/h N -0,6 C 0,5 C 1,6 km/h
03.11.2009 10:00 0,5 C 92 % 1003,3 hPa 0,3 l/m 0,0 km/h N -0,6 C 0,5 C 1,6 km/h
03.11.2009 11:00 0,9 C 92 % 1003,2 hPa 0,5 l/m 0,0 km/h N -0,3 C 0,9 C 3,2 km/h
03.11.2009 12:00 0,9 C 92 % 1002,9 hPa 0,8 l/m 0,0 km/h N -0,3 C 0,9 C 4,0 km/h
03.11.2009 13:00 1,0 C 92 % 1002,5 hPa 0,7 l/m 0,1 km/h N -0,2 C 1,0 C 3,6 km/h
03.11.2009 14:00 1,1 C 92 % 1002,6 hPa 0,3 l/m 0,1 km/h N -0,1 C 1,1 C 2,4 km/h
03.11.2009 15:00 1,2 C 92 % 1002,8 hPa 0,5 l/m 0,0 km/h N 0,0 C 1,2 C 2,0 km/h
03.11.2009 16:00 0,9 C 92 % 1003,2 hPa 0,0 l/m 0,0 km/h N -0,2 C 0,9 C 0,4 km/h
03.11.2009 17:00 0,7 C 92 % 1003,5 hPa 0,0 l/m 0,1 km/h N -0,5 C 0,7 C 2,8 km/h
03.11.2009 18:00 0,6 C 92 % 1003,6 hPa 0,3 l/m 0,0 km/h N -0,5 C 0,6 C 1,6 km/h
03.11.2009 19:00 0,5 C 92 % 1003,4 hPa 0,3 l/m 0,2 km/h N -0,6 C 0,5 C 2,8 km/h
03.11.2009 20:00 1,0 C 93 % 1003,1 hPa 0,5 l/m 0,3 km/h N -0,1 C 1,0 C 5,2 km/h
03.11.2009 21:00 1,2 C 92 % 1002,7 hPa 0,5 l/m 0,2 km/h N 0,1 C 1,2 C 3,6 km/h
03.11.2009 22:00 1,3 C 93 % 1002,1 hPa 0,3 l/m 1,3 km/h S 0,3 C 1,3 C 8,4 km/h
03.11.2009 23:00 1,3 C 93 % 1001,5 hPa 0,3 l/m 1,3 km/h S 0,3 C 1,3 C 6,0 km/h
04.11.2009 00:00 1,3 C 93 % 1000,8 hPa 0,3 l/m 0,8 km/h SO 0,3 C 1,3 C 6,0 km/h
04.11.2009 01:00 1,3 C 93 % 1000,5 hPa 0,0 l/m 0,4 km/h N 0,3 C 1,3 C 3,6 km/h
04.11.2009 02:00 1,3 C 93 % 999,9 hPa 0,3 l/m 0,8 km/h S 0,3 C 1,3 C 7,7 km/h
04.11.2009 03:00 1,3 C 93 % 999,3 hPa 0,0 l/m 0,8 km/h S 0,3 C 1,3 C 9,3 km/h
04.11.2009 04:00 1,2 C 93 % 998,7 hPa 0,3 l/m 0,8 km/h W-SW 0,2 C 1,2 C 9,2 km/h
04.11.2009 05:00 1,2 C 93 % 998,3 hPa 0,0 l/m 0,3 km/h N 0,1 C 1,2 C 4,4 km/h
04.11.2009 06:00 1,1 C 93 % 997,4 hPa 0,0 l/m 0,1 km/h N 0,1 C 1,1 C 4,0 km/h
04.11.2009 07:00 1,0 C 93 % 996,5 hPa 0,3 l/m 0,0 km/h N 0,0 C 1,0 C 1,6 km/h
04.11.2009 08:00 1,6 C 93 % 996,1 hPa 0,0 l/m 0,0 km/h N 0,6 C 1,6 C 1,2 km/h
04.11.2009 09:00 3,0 C 93 % 995,8 hPa 0,3 l/m 0,8 km/h O-NO 1,9 C 3,0 C 5,2 km/h
04.11.2009 10:00 3,2 C 91 % 996,0 hPa 0,5 l/m 0,7 km/h O-SO 1,9 C 3,2 C 8,0 km/h
04.11.2009 11:00 3,3 C 91 % 996,0 hPa 1,3 l/m 2,3 km/h O-SO 2,0 C 3,3 C 13,4 km/h
04.11.2009 12:00 3,2 C 91 % 996,2 hPa 1,0 l/m 1,1 km/h O-NO 1,8 C 3,2 C 7,6 km/h
04.11.2009 13:00 3,5 C 91 % 995,9 hPa 0,0 l/m 1,7 km/h S-SW 2,1 C 3,5 C 10,5 km/h
04.11.2009 14:00 3,8 C 89 % 996,4 hPa 0,0 l/m 2,6 km/h S 2,2 C 3,8 C 13,3 km/h
04.11.2009 15:00 3,7 C 89 % 997,1 hPa 0,3 l/m 0,2 km/h N 2,1 C 3,7 C 5,6 km/h
04.11.2009 16:00 3,3 C 89 % 997,5 hPa 0,0 l/m 0,0 km/h N 1,8 C 3,3 C 1,6 km/h
04.11.2009 17:00 3,1 C 90 % 998,2 hPa 0,0 l/m 0,0 km/h N 1,7 C 3,1 C 1,6 km/h
04.11.2009 18:00 3,1 C 91 % 999,0 hPa 0,0 l/m 0,1 km/h N 1,8 C 3,1 C 2,4 km/h
04.11.2009 19:00 3,2 C 91 % 999,8 hPa 0,0 l/m 0,1 km/h N 1,9 C 3,2 C 1,6 km/h
04.11.2009 20:00 3,3 C 91 % 1000,6 hPa 0,8 l/m 0,1 km/h N 2,0 C 3,3 C 2,8 km/h
04.11.2009 21:00 3,3 C 92 % 1000,9 hPa 0,0 l/m 0,2 km/h N 2,1 C 3,3 C 3,6 km/h
04.11.2009 22:00 3,3 C 92 % 1001,1 hPa 0,0 l/m 0,6 km/h N 2,1 C 3,3 C 5,6 km/h
04.11.2009 23:00 3,3 C 92 % 1001,5 hPa 0,0 l/m 1,0 km/h NW 2,1 C 3,3 C 7,6 km/h
05.11.2009 00:00 3,2 C 92 % 1001,5 hPa 0,0 l/m 1,2 km/h S 2,0 C 3,2 C 7,7 km/h
05.11.2009 01:00 3,1 C 92 % 1001,7 hPa 0,0 l/m 0,1 km/h N 1,9 C 3,1 C 2,8 km/h
05.11.2009 02:00 3,1 C 92 % 1001,7 hPa 0,0 l/m 0,0 km/h N 1,9 C 3,1 C 0,4 km/h
05.11.2009 03:00 3,1 C 92 % 1001,8 hPa 0,0 l/m 0,1 km/h N 1,9 C 3,1 C 2,0 km/h
05.11.2009 04:00 3,1 C 92 % 1002,1 hPa 0,0 l/m 0,2 km/h N 2,0 C 3,1 C 4,0 km/h
05.11.2009 05:00 3,2 C 93 % 1002,4 hPa 0,0 l/m 0,2 km/h N 2,2 C 3,2 C 2,0 km/h
05.11.2009 06:00 3,3 C 93 % 1002,8 hPa 0,0 l/m 0,2 km/h S-SW 2,3 C 3,3 C 3,2 km/h
05.11.2009 07:00 3,4 C 93 % 1003,6 hPa 0,0 l/m 1,3 km/h S 2,4 C 3,4 C 7,2 km/h
05.11.2009 08:00 3,6 C 93 % 1004,3 hPa 0,0 l/m 1,0 km/h S-SW 2,6 C 3,6 C 7,3 km/h
05.11.2009 09:00 3,6 C 93 % 1004,6 hPa 0,0 l/m 2,2 km/h S 2,6 C 3,6 C 9,3 km/h
05.11.2009 10:00 3,9 C 93 % 1005,0 hPa 0,0 l/m 1,7 km/h S 2,9 C 3,9 C 7,2 km/h
05.11.2009 11:00 4,3 C 93 % 1005,1 hPa 0,0 l/m 1,0 km/h SO 3,3 C 4,3 C 6,0 km/h
05.11.2009 12:00 4,5 C 93 % 1005,6 hPa 0,0 l/m 0,7 km/h S 3,5 C 4,5 C 5,6 km/h
05.11.2009 13:00 4,8 C 94 % 1006,0 hPa 0,0 l/m 0,8 km/h S 4,0 C 4,8 C 6,8 km/h
05.11.2009 14:00 5,1 C 93 % 1006,2 hPa 0,0 l/m 0,7 km/h S 4,0 C 5,1 C 6,8 km/h
05.11.2009 15:00 5,2 C 92 % 1006,4 hPa 0,0 l/m 0,1 km/h N 4,0 C 5,2 C 2,4 km/h
05.11.2009 16:00 5,1 C 92 % 1006,8 hPa 0,0 l/m 0,3 km/h S-SW 3,9 C 5,1 C 2,8 km/h
05.11.2009 17:00 5,2 C 92 % 1007,5 hPa 0,0 l/m 0,0 km/h N 4,0 C 5,2 C 2,0 km/h
05.11.2009 18:00 5,4 C 92 % 1008,1 hPa 0,0 l/m 0,1 km/h N 4,2 C 5,4 C 2,4 km/h
05.11.2009 19:00 5,6 C 92 % 1008,3 hPa 0,0 l/m 0,1 km/h N 4,5 C 5,6 C 2,0 km/h
05.11.2009 20:00 5,8 C 92 % 1008,5 hPa 0,0 l/m 0,1 km/h N 4,6 C 5,8 C 2,4 km/h
05.11.2009 21:00 5,8 C 92 % 1008,8 hPa 0,0 l/m 0,1 km/h N 4,6 C 5,8 C 2,8 km/h
05.11.2009 22:00 5,4 C 92 % 1009,1 hPa 0,0 l/m 0,3 km/h N 4,3 C 5,4 C 4,4 km/h
05.11.2009 23:00 5,4 C 92 % 1009,2 hPa 0,0 l/m 0,1 km/h N 4,2 C 5,4 C 2,4 km/h
06.11.2009 00:00 5,1 C 92 % 1009,6 hPa 0,0 l/m 0,2 km/h N 3,9 C 5,1 C 3,2 km/h
06.11.2009 01:00 4,9 C 92 % 1009,6 hPa 0,0 l/m 0,3 km/h N 3,7 C 4,9 C 3,2 km/h
06.11.2009 02:00 4,8 C 92 % 1009,7 hPa 0,0 l/m 0,6 km/h SO 3,6 C 4,8 C 4,8 km/h
06.11.2009 03:00 4,8 C 92 % 1009,8 hPa 0,0 l/m 0,5 km/h N 3,6 C 4,8 C 5,2 km/h
06.11.2009 04:00 4,8 C 92 % 1010,1 hPa 0,0 l/m 0,6 km/h O 3,6 C 4,8 C 4,4 km/h
06.11.2009 05:00 4,7 C 92 % 1010,5 hPa 0,0 l/m 1,0 km/h O 3,5 C 4,7 C 7,2 km/h
06.11.2009 06:00 4,6 C 92 % 1010,7 hPa 0,0 l/m 1,7 km/h O 3,4 C 4,6 C 7,6 km/h
06.11.2009 07:00 4,5 C 92 % 1011,7 hPa 0,0 l/m 1,1 km/h O-SO 3,3 C 4,5 C 6,4 km/h
06.11.2009 08:00 4,4 C 92 % 1011,9 hPa 0,0 l/m 1,1 km/h O-SO 3,2 C 4,4 C 7,2 km/h
06.11.2009 09:00 4,6 C 92 % 1012,0 hPa 0,0 l/m 1,7 km/h O 3,3 C 4,6 C 8,9 km/h
06.11.2009 10:00 4,7 C 91 % 1012,3 hPa 0,0 l/m 1,3 km/h SO 3,3 C 4,7 C 6,8 km/h
06.11.2009 11:00 4,9 C 91 % 1012,5 hPa 0,0 l/m 1,0 km/h NO 3,5 C 4,9 C 7,6 km/h
06.11.2009 12:00 4,9 C 91 % 1012,3 hPa 0,0 l/m 0,3 km/h N 3,6 C 4,9 C 4,4 km/h
06.11.2009 13:00 4,8 C 91 % 1012,0 hPa 0,0 l/m 0,4 km/h N 3,4 C 4,8 C 6,4 km/h
06.11.2009 14:00 4,9 C 91 % 1012,0 hPa 0,0 l/m 0,0 km/h N 3,6 C 4,9 C 4,8 km/h
06.11.2009 15:00 5,1 C 91 % 1011,9 hPa 0,0 l/m 0,0 km/h O-NO 3,8 C 5,1 C 2,4 km/h
06.11.2009 16:00 4,9 C 91 % 1011,5 hPa 0,0 l/m 0,8 km/h N 3,5 C 4,9 C 5,6 km/h
06.11.2009 17:00 4,6 C 92 % 1011,7 hPa 0,0 l/m 0,8 km/h O-NO 3,5 C 4,6 C 4,0 km/h
06.11.2009 18:00 4,4 C 93 % 1011,5 hPa 0,0 l/m 0,0 km/h N 3,3 C 4,4 C 3,2 km/h
06.11.2009 19:00 4,5 C 93 % 1011,8 hPa 0,0 l/m 0,0 km/h N 3,5 C 4,5 C 3,2 km/h
06.11.2009 20:00 4,6 C 93 % 1011,7 hPa 1,0 l/m 0,0 km/h N 3,5 C 4,6 C 4,0 km/h
06.11.2009 21:00 4,5 C 93 % 1011,4 hPa 1,0 l/m 0,0 km/h N 3,5 C 4,5 C 1,6 km/h
06.11.2009 22:00 4,4 C 93 % 1010,8 hPa 1,0 l/m 0,0 km/h N 3,4 C 4,4 C 3,2 km/h
06.11.2009 23:00 4,4 C 93 % 1010,4 hPa 0,8 l/m 0,0 km/h N 3,4 C 4,4 C 3,2 km/h
07.11.2009 00:00 4,4 C 93 % 1010,0 hPa 0,3 l/m 0,8 km/h N-NW 3,4 C 4,4 C 4,8 km/h
07.11.2009 01:00 4,5 C 93 % 1009,5 hPa 0,3 l/m 0,0 km/h N-NW 3,5 C 4,5 C 2,4 km/h
07.11.2009 02:00 4,4 C 93 % 1008,8 hPa 0,0 l/m 1,6 km/h N-NW 3,4 C 4,4 C 4,8 km/h
07.11.2009 03:00 4,4 C 93 % 1008,5 hPa 0,0 l/m 1,6 km/h N-NW 3,4 C 4,4 C 6,4 km/h
07.11.2009 04:00 4,6 C 93 % 1008,0 hPa 0,3 l/m 1,6 km/h N-NW 3,5 C 4,6 C 6,4 km/h
07.11.2009 05:00 4,7 C 93 % 1007,8 hPa 0,3 l/m 0,0 km/h N 3,7 C 4,7 C 3,2 km/h
07.11.2009 06:00 4,8 C 93 % 1007,5 hPa 0,5 l/m 0,0 km/h N 3,8 C 4,8 C 0,0 km/h
07.11.2009 07:00 4,9 C 93 % 1006,8 hPa 0,0 l/m 0,0 km/h N 3,8 C 4,9 C 1,6 km/h
07.11.2009 08:00 5,2 C 94 % 1006,7 hPa 0,0 l/m 0,0 km/h N 4,2 C 5,2 C 3,2 km/h
07.11.2009 09:00 5,9 C 94 % 1006,3 hPa 0,3 l/m 0,0 km/h N 4,9 C 5,9 C 2,4 km/h
07.11.2009 10:00 6,4 C 91 % 1006,0 hPa 0,0 l/m 0,8 km/h S 5,0 C 6,4 C 8,9 km/h
07.11.2009 11:00 6,4 C 90 % 1005,9 hPa 0,0 l/m 0,0 km/h N 4,9 C 6,4 C 5,6 km/h
07.11.2009 12:00 7,2 C 89 % 1005,2 hPa 0,0 l/m 0,0 km/h N 5,4 C 7,2 C 4,8 km/h
07.11.2009 13:00 7,4 C 88 % 1004,6 hPa 0,0 l/m 0,0 km/h N 5,6 C 7,4 C 7,2 km/h
07.11.2009 14:00 8,1 C 89 % 1004,3 hPa 0,0 l/m 0,0 km/h N 6,3 C 8,1 C 2,4 km/h
07.11.2009 15:00 8,7 C 88 % 1004,0 hPa 0,0 l/m 0,8 km/h S 6,7 C 8,7 C 11,3 km/h
07.11.2009 16:00 8,5 C 84 % 1004,3 hPa 0,0 l/m 1,6 km/h SW 5,9 C 8,5 C 12,8 km/h
07.11.2009 17:00 7,5 C 84 % 1004,6 hPa 0,0 l/m 0,0 km/h N 5,0 C 7,5 C 5,7 km/h
07.11.2009 18:00 5,7 C 84 % 1004,8 hPa 0,0 l/m 0,0 km/h N 3,1 C 5,7 C 0,0 km/h
07.11.2009 19:00 4,1 C 86 % 1005,0 hPa 0,0 l/m 0,0 km/h N 2,0 C 4,1 C 0,8 km/h
07.11.2009 20:00 4,8 C 90 % 1005,0 hPa 0,0 l/m 0,0 km/h N 3,3 C 4,8 C 0,0 km/h
07.11.2009 21:00 5,6 C 91 % 1004,8 hPa 0,0 l/m 0,0 km/h N 4,2 C 5,6 C 1,6 km/h
07.11.2009 22:00 5,6 C 92 % 1004,9 hPa 0,0 l/m 0,0 km/h N 4,4 C 5,6 C 1,6 km/h
07.11.2009 23:00 5,8 C 92 % 1004,8 hPa 0,0 l/m 0,0 km/h N 4,6 C 5,8 C 2,4 km/h
08.11.2009 00:00 5,6 C 92 % 1005,0 hPa 0,0 l/m 0,0 km/h N 4,5 C 5,6 C 3,2 km/h
08.11.2009 01:00 5,6 C 92 % 1004,8 hPa 0,0 l/m 0,0 km/h N 4,4 C 5,6 C 3,2 km/h
08.11.2009 02:00 5,4 C 92 % 1005,3 hPa 0,0 l/m 0,0 km/h N 4,3 C 5,4 C 4,8 km/h
08.11.2009 03:00 5,4 C 93 % 1005,3 hPa 0,0 l/m 0,0 km/h N 4,3 C 5,4 C 4,0 km/h
08.11.2009 04:00 5,3 C 93 % 1005,5 hPa 0,0 l/m 0,0 km/h N 4,3 C 5,3 C 4,0 km/h
08.11.2009 05:00 4,9 C 93 % 1005,3 hPa 0,0 l/m 0,8 km/h O 3,9 C 4,9 C 4,8 km/h
08.11.2009 06:00 4,6 C 93 % 1005,8 hPa 0,0 l/m 0,0 km/h N 3,6 C 4,6 C 3,2 km/h
08.11.2009 07:00 4,4 C 93 % 1006,3 hPa 0,0 l/m 0,8 km/h S 3,4 C 4,4 C 7,3 km/h
08.11.2009 08:00 4,6 C 93 % 1006,2 hPa 0,0 l/m 2,4 km/h S 3,6 C 4,6 C 11,3 km/h
08.11.2009 09:00 4,8 C 93 % 1006,2 hPa 0,0 l/m 1,6 km/h S-SW 3,7 C 4,8 C 6,4 km/h
08.11.2009 10:00 5,1 C 93 % 1006,2 hPa 0,0 l/m 0,0 km/h N 4,1 C 5,1 C 0,8 km/h
08.11.2009 11:00 5,5 C 93 % 1005,7 hPa 0,0 l/m 0,0 km/h N 4,5 C 5,5 C 2,4 km/h
08.11.2009 12:00 6,0 C 93 % 1005,2 hPa 0,0 l/m 0,0 km/h N 5,0 C 6,0 C 3,2 km/h
08.11.2009 13:00 6,4 C 93 % 1004,3 hPa 0,0 l/m 0,0 km/h N 5,4 C 6,4 C 4,8 km/h
08.11.2009 14:00 7,0 C 93 % 1003,6 hPa 0,0 l/m 0,0 km/h N 5,9 C 7,0 C 4,8 km/h
08.11.2009 15:00 7,4 C 93 % 1003,4 hPa 0,0 l/m 0,8 km/h N 6,2 C 7,4 C 4,8 km/h
08.11.2009 16:00 7,4 C 92 % 1002,9 hPa 0,0 l/m 1,6 km/h N-NW 6,2 C 7,4 C 4,8 km/h
08.11.2009 17:00 7,4 C 91 % 1002,9 hPa 0,0 l/m 1,6 km/h N-NW 6,0 C 7,4 C 5,6 km/h
08.11.2009 18:00 7,4 C 92 % 1002,5 hPa 0,5 l/m 2,4 km/h N-NW 6,1 C 7,4 C 6,4 km/h
08.11.2009 19:00 7,4 C 92 % 1002,1 hPa 1,0 l/m 0,0 km/h N 6,2 C 7,4 C 2,4 km/h
08.11.2009 20:00 7,5 C 92 % 1002,3 hPa 0,5 l/m 0,0 km/h N 6,3 C 7,5 C 3,2 km/h
08.11.2009 21:00 7,4 C 93 % 1002,3 hPa 0,3 l/m 0,0 km/h N 6,2 C 7,4 C 4,8 km/h
08.11.2009 22:00 7,2 C 93 % 1002,1 hPa 0,0 l/m 0,0 km/h N 6,1 C 7,2 C 1,6 km/h
08.11.2009 23:00 7,2 C 93 % 1001,9 hPa 0,0 l/m 0,0 km/h N 6,1 C 7,2 C 4,0 km/h
Min-Datum _ 03.11.09 02.11.09 04.11.09 - 02.11.09 - 03.11.09 03.11.09 03.11.09
_ Min-Zeit 09:30 13:30 09:15 - 00:16 - 09:30 09:30 08:00
Minimum _ 0,4 C 71 % 995,6 hPa - 0,0 km/h - -0,7 C 0,4 C 0,0 km/h
Max-Datum _ 07.11.09 05.11.09 02.11.09 04.11.09 02.11.09 - 07.11.09 07.11.09 02.11.09
_ Max-Zeit 15:30 13:45 00:00 11:30 12:15 - 15:00 15:30 08:45
Maximum _ 8,8 C 98 % 1016,8 hPa 1,3 l/m 4,6 km/h
O
- 6,9 C 8,8 C 20,9 km/h
O
Durchschnitt _ 4,1 C 90 % 1005,4 hPa #20,5 l/m 0,6 km/h S 2,7 C 4,1 C 5,0 km/h